createdAt,value
2019-02-16T08:43:08.342Z,90.19
2019-02-16T08:44:08.312Z,89.76
2019-02-16T08:45:08.304Z,89.62
2019-02-16T08:46:08.295Z,89.83
2019-02-16T08:47:08.322Z,90.14
2019-02-16T08:48:08.301Z,89.52
2019-02-16T08:49:08.259Z,89.00
2019-02-16T08:50:08.254Z,88.27
2019-02-16T08:51:08.249Z,87.71
2019-02-16T08:52:08.244Z,87.60
2019-02-16T08:53:08.254Z,87.15
2019-02-16T08:54:08.212Z,86.83
2019-02-16T08:55:08.193Z,86.63
2019-02-16T08:56:08.180Z,87.04
2019-02-16T08:57:08.230Z,87.04
2019-02-16T08:58:08.208Z,86.90
2019-02-16T08:59:08.157Z,86.80
2019-02-16T09:00:08.158Z,86.59
2019-02-16T09:01:08.135Z,87.01
2019-02-16T09:02:08.118Z,85.96
2019-02-16T09:03:08.148Z,85.61
2019-02-16T09:04:08.118Z,85.20
2019-02-16T09:05:08.083Z,84.99
2019-02-16T09:06:08.073Z,83.91
2019-02-16T09:07:08.068Z,82.01
2019-02-16T09:08:08.090Z,81.14
2019-02-16T09:09:08.039Z,80.21
2019-02-16T09:10:08.035Z,78.75
2019-02-16T09:11:08.022Z,80.27
2019-02-16T09:12:08.009Z,77.44
2019-02-16T09:13:08.027Z,78.58
2019-02-16T09:14:08.006Z,78.99
2019-02-16T09:15:07.980Z,79.71
2019-02-16T09:16:07.965Z,80.13
2019-02-16T09:17:07.976Z,80.37
2019-02-16T09:18:07.988Z,80.13
2019-02-16T09:19:07.936Z,77.85
2019-02-16T09:20:07.937Z,79.30
2019-02-16T09:21:14.494Z,80.23
2019-02-16T09:22:08.912Z,78.78
2019-02-16T09:23:07.924Z,78.89
2019-02-16T09:24:07.904Z,77.29
2019-02-16T09:25:07.865Z,75.84
2019-02-16T09:26:07.856Z,76.43
2019-02-16T09:27:07.880Z,77.26
2019-02-16T09:28:07.830Z,74.43
2019-02-16T09:29:07.846Z,76.50
2019-02-16T09:30:07.824Z,75.78
2019-02-16T09:31:07.805Z,75.67
2019-02-16T09:32:07.795Z,72.85
2019-02-16T09:33:07.785Z,72.12
2019-02-16T09:34:07.797Z,72.71
2019-02-16T09:35:07.768Z,74.15
2019-02-16T09:36:07.762Z,74.67
2019-02-16T09:37:07.736Z,72.36
2019-02-16T09:38:07.725Z,72.78
2019-02-16T09:39:07.754Z,74.74
2019-02-16T09:40:07.722Z,75.29
2019-02-16T09:41:07.693Z,75.91
2019-02-16T09:42:07.706Z,76.46
2019-02-16T09:43:07.700Z,76.78
2019-02-16T09:44:07.698Z,74.40
2019-02-16T09:45:07.651Z,75.29
2019-02-16T09:46:07.640Z,75.63
2019-02-16T09:47:07.636Z,76.57
2019-02-16T09:48:07.632Z,74.40
2019-02-16T09:49:07.633Z,75.43
2019-02-16T09:50:07.646Z,76.46
2019-02-16T09:51:07.589Z,76.57
2019-02-16T09:52:07.583Z,77.50
2019-02-16T09:53:07.586Z,77.39
2019-02-16T09:54:08.700Z,77.91
2019-02-16T09:55:07.570Z,76.78
2019-02-16T09:56:07.551Z,74.60
2019-02-16T09:57:07.528Z,76.12
2019-02-16T09:58:07.555Z,76.74
2019-02-16T09:59:07.513Z,77.47
2019-02-16T10:00:07.520Z,76.74
2019-02-16T10:01:07.502Z,72.26
2019-02-16T10:02:07.501Z,72.36
2019-02-16T10:03:07.484Z,71.50
2019-02-16T10:04:07.474Z,70.43
2019-02-16T10:05:07.478Z,70.33
2019-02-16T10:06:07.445Z,70.92
2019-02-16T10:07:07.445Z,70.30
2019-02-16T10:08:07.423Z,72.57
2019-02-16T10:09:07.411Z,70.72
2019-02-16T10:10:07.423Z,70.09
2019-02-16T10:11:07.395Z,70.06
2019-02-16T10:12:07.387Z,69.54
2019-02-16T10:13:07.371Z,70.65
2019-02-16T10:14:07.353Z,66.52
2019-02-16T10:15:07.394Z,68.24
2019-02-16T10:16:07.348Z,68.35
2019-02-16T10:17:07.331Z,67.93
2019-02-16T10:18:07.326Z,68.86
2019-02-16T10:19:07.441Z,70.41
2019-02-16T10:20:07.343Z,69.72
2019-02-16T10:21:07.340Z,67.11
2019-02-16T10:22:07.289Z,66.60
2019-02-16T10:23:07.273Z,66.25
2019-02-16T10:24:07.259Z,67.21
2019-02-16T10:25:07.276Z,68.21
2019-02-16T10:26:07.287Z,68.52
2019-02-16T10:27:07.243Z,70.48
2019-02-16T10:28:07.222Z,67.18
2019-02-16T10:29:07.210Z,65.09
2019-02-16T10:30:07.205Z,67.12
2019-02-16T10:31:07.218Z,67.02
2019-02-16T10:32:07.183Z,65.99
2019-02-16T10:33:07.171Z,67.33
2019-02-16T10:34:07.167Z,64.11
2019-02-16T10:35:07.149Z,66.88
2019-02-16T10:36:07.166Z,66.47
2019-02-16T10:37:07.203Z,64.51
2019-02-16T10:38:07.113Z,63.90
2019-02-16T10:39:07.111Z,65.31
2019-02-16T10:40:07.157Z,63.56
2019-02-16T10:41:07.157Z,65.52
2019-02-16T10:42:07.100Z,63.76
2019-02-16T10:43:07.061Z,62.81
2019-02-16T10:44:07.071Z,62.40
2019-02-16T10:45:07.071Z,63.64
2019-02-16T10:46:07.039Z,62.37
2019-02-16T10:47:07.060Z,64.43
2019-02-16T10:48:07.061Z,63.40
2019-02-16T10:49:07.152Z,62.51
2019-02-16T10:50:06.989Z,62.48
2019-02-16T10:51:06.992Z,62.48
2019-02-16T10:52:07.064Z,61.55
2019-02-16T10:53:06.971Z,60.49
2019-02-16T10:54:06.953Z,60.49
2019-02-16T10:55:06.936Z,60.39
2019-02-16T10:56:06.951Z,60.88
2019-02-16T10:57:06.952Z,60.54
2019-02-16T10:58:06.909Z,60.44
2019-02-16T10:59:06.927Z,60.44
2019-02-16T11:00:06.892Z,60.44
2019-02-16T11:01:06.885Z,60.03
2019-02-16T11:02:06.917Z,59.80
2019-02-16T11:03:06.869Z,60.92
2019-02-16T11:04:06.845Z,60.31
2019-02-16T11:05:06.835Z,58.87
2019-02-16T11:06:06.835Z,60.10
2019-02-16T11:07:06.839Z,59.59
2019-02-16T11:08:06.851Z,59.80
2019-02-16T11:09:06.787Z,60.92
2019-02-16T11:10:06.787Z,62.08
2019-02-16T11:11:06.774Z,60.00
2019-02-16T11:12:06.769Z,61.02
2019-02-16T11:13:06.769Z,62.26
2019-02-16T11:14:06.735Z,60.41
2019-02-16T11:15:06.734Z,63.10
2019-02-16T11:16:06.701Z,62.49
2019-02-16T11:17:06.693Z,62.18
2019-02-16T11:18:06.731Z,61.46
2019-02-16T11:19:06.692Z,63.34
2019-02-16T11:20:06.665Z,64.47
2019-02-16T11:21:06.663Z,62.21
2019-02-16T11:22:06.696Z,62.52
2019-02-16T11:23:06.685Z,62.52
2019-02-16T11:24:06.637Z,62.41
2019-02-16T11:25:06.634Z,63.85
2019-02-16T11:26:06.611Z,62.41
2019-02-16T11:27:06.587Z,63.42
2019-02-16T11:28:06.642Z,62.41
2019-02-16T11:29:06.585Z,61.67
2019-02-16T11:30:06.552Z,62.49
2019-02-16T11:31:06.655Z,60.82
2019-02-16T11:32:06.537Z,60.41
2019-02-16T11:33:06.557Z,60.41
2019-02-16T11:34:06.510Z,61.54
2019-02-16T11:35:06.526Z,60.41
2019-02-16T11:36:06.481Z,62.36
2019-02-16T11:37:06.479Z,61.13
2019-02-16T11:38:06.484Z,60.82
2019-02-16T11:39:06.481Z,61.00
2019-02-16T11:40:06.446Z,61.20
2019-02-16T11:41:06.427Z,60.07
2019-02-16T11:42:06.418Z,62.43
2019-02-16T11:43:06.411Z,61.85
2019-02-16T11:44:06.446Z,60.41
2019-02-16T11:45:06.399Z,60.17
2019-02-16T11:46:06.408Z,60.46
2019-02-16T11:47:06.378Z,59.94
2019-02-16T11:48:06.365Z,59.74
2019-02-16T11:49:06.365Z,59.43
2019-02-16T11:50:06.334Z,60.46
2019-02-16T11:51:06.315Z,60.46
2019-02-16T11:52:06.310Z,59.53
2019-02-16T11:53:06.306Z,60.33
2019-02-16T11:54:06.369Z,59.92
2019-02-16T11:55:06.277Z,60.84
2019-02-16T11:56:06.286Z,58.79
2019-02-16T11:57:06.260Z,60.02
2019-02-16T11:58:06.299Z,58.89
2019-02-16T11:59:06.277Z,58.58
2019-02-16T12:00:06.299Z,58.89
2019-02-16T12:01:06.220Z,59.99
2019-02-16T12:02:06.215Z,58.69
2019-02-16T12:03:06.194Z,61.11
2019-02-16T12:04:06.203Z,59.41
2019-02-16T12:05:06.202Z,62.27
2019-02-16T12:06:06.159Z,60.53
2019-02-16T12:07:06.147Z,62.19
2019-02-16T12:08:06.171Z,60.56
2019-02-16T12:09:06.130Z,60.35
2019-02-16T12:10:06.164Z,59.30
2019-02-16T12:11:06.139Z,59.81
2019-02-16T12:12:06.083Z,59.89
2019-02-16T12:13:06.107Z,58.66
2019-02-16T12:14:06.089Z,58.76
2019-02-16T12:15:06.098Z,56.92
2019-02-16T12:16:06.127Z,56.48
2019-02-16T12:17:06.035Z,57.71
2019-02-16T12:18:06.026Z,56.89
2019-02-16T12:19:06.018Z,55.94
2019-02-16T12:20:06.058Z,55.21
2019-02-16T12:21:06.033Z,53.88
2019-02-16T12:22:06.003Z,54.57
2019-02-16T12:23:05.969Z,54.46
2019-02-16T12:24:06.015Z,54.57
2019-02-16T12:25:06.494Z,56.40
2019-02-16T12:26:05.978Z,55.49
2019-02-16T12:27:05.925Z,55.82
2019-02-16T12:28:05.917Z,56.53
2019-02-16T12:29:05.957Z,55.30
2019-02-16T12:30:05.896Z,55.82
2019-02-16T12:31:05.900Z,55.62
2019-02-16T12:32:05.882Z,57.66
2019-02-16T12:33:05.905Z,56.12
2019-02-16T12:34:05.847Z,56.35
2019-02-16T12:35:05.849Z,55.54
2019-02-16T12:36:05.844Z,56.15
2019-02-16T12:37:05.823Z,55.94
2019-02-16T12:38:05.820Z,57.28
2019-02-16T12:39:05.828Z,55.41
2019-02-16T12:40:05.788Z,57.97
2019-02-16T12:41:05.869Z,57.28
2019-02-16T12:42:05.808Z,56.97
2019-02-16T12:43:05.754Z,55.74
2019-02-16T12:44:05.762Z,55.33
2019-02-16T12:45:05.762Z,54.39
2019-02-16T12:46:05.745Z,55.74
2019-02-16T12:47:05.728Z,55.92
2019-02-16T12:48:05.689Z,55.21
2019-02-16T12:49:05.682Z,55.21
2019-02-16T12:50:05.710Z,56.84
2019-02-16T12:51:05.660Z,55.30
2019-02-16T12:52:05.670Z,55.10
2019-02-16T12:53:05.640Z,56.84
2019-02-16T12:54:05.621Z,55.82
2019-02-16T12:55:14.268Z,56.63
2019-02-16T12:56:06.629Z,56.23
2019-02-16T12:57:05.631Z,57.86
2019-02-16T12:58:05.582Z,56.35
2019-02-16T12:59:05.574Z,55.33
2019-02-16T13:00:05.606Z,56.23
2019-02-16T13:01:05.589Z,54.08
2019-02-16T13:02:05.567Z,53.88
2019-02-16T13:03:05.572Z,53.34
2019-02-16T13:04:05.528Z,54.05
2019-02-16T13:05:05.493Z,52.80
2019-02-16T13:06:05.488Z,53.31
2019-02-16T13:07:05.510Z,53.52
2019-02-16T13:08:05.464Z,53.31
2019-02-16T13:09:05.454Z,53.11
2019-02-16T13:10:05.484Z,54.95
2019-02-16T13:11:05.430Z,53.11
2019-02-16T13:12:05.454Z,52.60
2019-02-16T13:13:05.412Z,52.29
2019-02-16T13:14:05.395Z,54.54
2019-02-16T13:15:05.400Z,53.01
2019-02-16T13:16:05.372Z,56.89
2019-02-16T13:17:05.376Z,53.03
2019-02-16T13:18:05.357Z,52.60
2019-02-16T13:19:05.337Z,52.06
2019-02-16T13:20:05.328Z,51.86
2019-02-16T13:21:05.317Z,52.06
2019-02-16T13:22:05.339Z,52.04
2019-02-16T13:23:05.404Z,51.73
2019-02-16T13:24:05.294Z,52.34
2019-02-16T13:25:05.271Z,51.32
2019-02-16T13:26:05.271Z,53.27
2019-02-16T13:27:05.262Z,53.57
2019-02-16T13:28:05.264Z,55.33
2019-02-16T13:29:05.226Z,53.19
2019-02-16T13:30:05.329Z,54.82
2019-02-16T13:31:05.195Z,53.49
2019-02-16T13:32:05.188Z,56.48
2019-02-16T13:33:08.445Z,55.56
2019-02-16T13:34:05.244Z,58.34
2019-02-16T13:35:05.167Z,58.75
2019-02-16T13:36:05.187Z,55.30
2019-02-16T13:37:05.149Z,55.41
2019-02-16T13:38:05.143Z,55.49
2019-02-16T13:39:05.111Z,54.26
2019-02-16T13:40:05.117Z,57.43
2019-02-16T13:41:05.081Z,54.87
2019-02-16T13:42:05.080Z,56.89
2019-02-16T13:43:05.087Z,57.29
2019-02-16T13:44:05.052Z,56.48
2019-02-16T13:45:05.038Z,56.30
2019-02-16T13:46:05.029Z,54.85
2019-02-16T13:47:05.017Z,53.11
2019-02-16T13:48:05.183Z,55.97
2019-02-16T13:49:05.042Z,54.44
2019-02-16T13:50:04.989Z,58.22
2019-02-16T13:51:04.965Z,56.79
2019-02-16T13:52:04.969Z,55.05
2019-02-16T13:53:05.000Z,52.80
2019-02-16T13:54:04.933Z,51.96
2019-02-16T13:55:04.925Z,51.53
2019-02-16T13:56:04.921Z,51.61
2019-02-16T13:57:04.918Z,51.91
2019-02-16T13:58:04.898Z,50.38
2019-02-16T13:59:04.922Z,49.46
2019-02-16T14:00:04.887Z,50.97
2019-02-16T14:01:04.854Z,54.54
2019-02-16T14:02:04.855Z,50.87
2019-02-16T14:03:04.846Z,51.89
2019-02-16T14:04:04.849Z,51.89
2019-02-16T14:05:04.804Z,50.36
2019-02-16T14:06:04.797Z,49.34
2019-02-16T14:07:04.840Z,51.48
2019-02-16T14:08:06.062Z,51.58
2019-02-16T14:09:04.794Z,53.62
2019-02-16T14:10:04.749Z,56.60
2019-02-16T14:11:04.754Z,57.34
2019-02-16T14:12:04.753Z,58.19
2019-02-16T14:13:04.721Z,53.59
2019-02-16T14:14:04.730Z,56.27
2019-02-16T14:15:04.724Z,54.54
2019-02-16T14:16:04.678Z,53.42
2019-02-16T14:17:04.677Z,53.42
2019-02-16T14:18:04.654Z,53.62
2019-02-16T14:19:04.644Z,51.84
2019-02-16T14:20:04.652Z,54.61
2019-02-16T14:21:04.619Z,55.30
2019-02-16T14:22:04.606Z,53.77
2019-02-16T14:23:04.600Z,55.51
2019-02-16T14:24:04.584Z,55.74
2019-02-16T14:25:04.617Z,54.82
2019-02-16T14:26:04.565Z,52.67
2019-02-16T14:27:04.546Z,52.67
2019-02-16T14:28:04.535Z,53.39
2019-02-16T14:29:04.529Z,51.65
2019-02-16T14:30:04.543Z,56.04
2019-02-16T14:31:04.502Z,51.96
2019-02-16T14:32:04.499Z,53.06
2019-02-16T14:33:04.471Z,56.23
2019-02-16T14:34:04.490Z,57.68
2019-02-16T14:35:04.494Z,56.79
2019-02-16T14:36:04.445Z,57.40
2019-02-16T14:37:04.422Z,53.23
2019-02-16T14:38:04.436Z,58.14
2019-02-16T14:39:04.401Z,58.14
2019-02-16T14:40:04.414Z,56.02
2019-02-16T14:41:04.410Z,58.58
2019-02-16T14:42:04.365Z,54.08
2019-02-16T14:43:04.348Z,56.33
2019-02-16T14:44:04.344Z,56.74
2019-02-16T14:45:04.326Z,55.30
2019-02-16T14:46:04.348Z,55.82
2019-02-16T14:47:04.304Z,53.57
2019-02-16T14:48:04.294Z,54.16
2019-02-16T14:49:04.284Z,55.58
2019-02-16T14:50:04.274Z,54.44
2019-02-16T14:51:04.272Z,52.91
2019-02-16T14:52:04.278Z,53.83
2019-02-16T14:53:04.244Z,51.65
2019-02-16T14:54:04.226Z,51.43
2019-02-16T14:55:04.221Z,50.31
2019-02-16T14:56:04.205Z,49.46
2019-02-16T14:57:04.225Z,50.05
2019-02-16T14:58:04.178Z,49.24
2019-02-16T14:59:04.170Z,49.52
2019-02-16T15:00:04.155Z,48.60
2019-02-16T15:01:04.162Z,50.11
2019-02-16T15:02:04.161Z,48.81
2019-02-16T15:03:04.118Z,49.29
2019-02-16T15:04:04.116Z,49.19
2019-02-16T15:05:04.099Z,50.13
2019-02-16T15:06:04.081Z,49.40
2019-02-16T15:07:04.102Z,48.27
2019-02-16T15:08:04.060Z,47.56
2019-02-16T15:09:04.069Z,47.97
2019-02-16T15:10:04.034Z,49.60
2019-02-16T15:11:04.028Z,49.50
2019-02-16T15:12:04.038Z,51.66
2019-02-16T15:13:04.006Z,49.73
2019-02-16T15:14:04.019Z,49.83
2019-02-16T15:15:03.980Z,48.81
2019-02-16T15:16:03.961Z,49.21
2019-02-16T15:17:03.982Z,49.32
2019-02-16T15:18:03.961Z,49.21
2019-02-16T15:19:03.929Z,50.03
2019-02-16T15:20:03.926Z,50.23
2019-02-16T15:21:03.906Z,50.77
2019-02-16T15:22:03.913Z,52.91
2019-02-16T15:23:03.886Z,54.44
2019-02-16T15:24:03.915Z,51.91
2019-02-16T15:25:03.872Z,51.73
2019-02-16T15:26:03.849Z,51.22
2019-02-16T15:27:03.874Z,51.73
2019-02-16T15:28:03.851Z,51.22
2019-02-16T15:29:03.813Z,50.92
2019-02-16T15:30:03.813Z,50.51
2019-02-16T15:31:03.797Z,52.34
2019-02-16T15:32:03.813Z,51.93
2019-02-16T15:33:03.765Z,53.47
2019-02-16T15:34:03.746Z,52.14
2019-02-16T15:35:03.739Z,53.80
2019-02-16T15:36:03.732Z,51.04
2019-02-16T15:37:03.755Z,51.35
2019-02-16T15:38:03.735Z,51.45
2019-02-16T15:39:03.685Z,51.84
2019-02-16T15:40:03.691Z,52.06
2019-02-16T15:41:03.668Z,50.31
2019-02-16T15:42:03.657Z,54.08
2019-02-16T15:43:03.672Z,55.02
2019-02-16T15:44:03.637Z,53.39
2019-02-16T15:45:03.615Z,54.82
2019-02-16T15:46:03.607Z,57.17
2019-02-16T15:47:03.610Z,52.70
2019-02-16T15:48:03.619Z,57.60
2019-02-16T15:49:03.582Z,56.61
2019-02-16T15:50:03.562Z,59.30
2019-02-16T15:51:03.557Z,58.48
2019-02-16T15:52:03.546Z,56.53
2019-02-16T15:53:03.587Z,58.70
2019-02-16T15:54:03.514Z,59.94
2019-02-16T15:55:03.516Z,61.70
2019-02-16T15:56:10.211Z,61.80
2019-02-16T15:57:04.473Z,62.14
2019-02-16T15:58:03.529Z,62.14
2019-02-16T15:59:03.469Z,62.17
2019-02-16T16:00:03.465Z,62.17
2019-02-16T16:01:03.459Z,63.53
2019-02-16T16:02:03.475Z,58.72
2019-02-16T16:03:03.452Z,63.32
2019-02-16T16:04:03.417Z,64.76
2019-02-16T16:05:03.450Z,62.81
2019-02-16T16:06:03.367Z,61.10
2019-02-16T16:07:03.369Z,61.71
2019-02-16T16:08:03.381Z,57.59
2019-02-16T16:09:03.333Z,57.18
2019-02-16T16:10:03.319Z,56.84
2019-02-16T16:11:03.315Z,60.02
2019-02-16T16:12:03.302Z,59.07
2019-02-16T16:13:03.320Z,60.02
2019-02-16T16:14:03.314Z,61.04
2019-02-16T16:15:03.272Z,58.69
2019-02-16T16:16:03.286Z,58.07
2019-02-16T16:17:03.246Z,60.35
2019-02-16T16:18:03.257Z,62.51
2019-02-16T16:19:03.252Z,63.22
2019-02-16T16:20:03.207Z,63.64
2019-02-16T16:21:03.208Z,63.66
2019-02-16T16:22:03.193Z,64.10
2019-02-16T16:23:03.186Z,65.44
2019-02-16T16:24:03.199Z,65.36
2019-02-16T16:25:03.153Z,65.67
2019-02-16T16:26:03.195Z,62.39
2019-02-16T16:27:03.131Z,64.85
2019-02-16T16:28:03.121Z,64.13
2019-02-16T16:29:03.144Z,64.95
2019-02-16T16:30:03.097Z,64.13
2019-02-16T16:31:03.095Z,64.03
2019-02-16T16:32:03.081Z,65.36
2019-02-16T16:33:03.066Z,62.39
2019-02-16T16:34:03.059Z,61.98
2019-02-16T16:35:03.137Z,64.23
2019-02-16T16:36:03.042Z,64.13
2019-02-16T16:37:03.022Z,60.44
2019-02-16T16:38:03.013Z,62.29
2019-02-16T16:39:03.009Z,60.85
2019-02-16T16:40:03.021Z,61.46
2019-02-16T16:41:02.979Z,63.42
2019-02-16T16:42:02.970Z,62.08
2019-02-16T16:43:04.379Z,60.54
2019-02-16T16:44:02.967Z,64.03
2019-02-16T16:45:02.977Z,63.65
2019-02-16T16:46:02.925Z,62.31
2019-02-16T16:47:02.916Z,64.47
2019-02-16T16:48:02.909Z,65.12
2019-02-16T16:49:02.896Z,64.81
2019-02-16T16:50:02.912Z,64.91
2019-02-16T16:51:02.861Z,65.12
2019-02-16T16:52:02.879Z,61.83
2019-02-16T16:53:02.855Z,64.60
2019-02-16T16:54:02.834Z,64.40
2019-02-16T16:55:02.824Z,66.35
2019-02-16T16:56:02.926Z,65.97
2019-02-16T16:57:02.800Z,67.20
2019-02-16T16:58:02.807Z,65.14
2019-02-16T16:59:02.792Z,66.17
2019-02-16T17:00:02.803Z,67.10
2019-02-16T17:01:02.844Z,66.93
2019-02-16T17:02:02.748Z,65.38
2019-02-16T17:03:02.782Z,67.44
2019-02-16T17:04:02.720Z,68.05
2019-02-16T17:05:02.730Z,68.37
2019-02-16T17:06:03.227Z,69.22
2019-02-16T17:07:02.686Z,68.91
2019-02-16T17:08:02.677Z,69.97
2019-02-16T17:09:02.674Z,69.56
2019-02-16T17:10:02.657Z,70.38
2019-02-16T17:11:02.676Z,70.42
2019-02-16T17:13:03.804Z,70.52
2019-02-16T17:14:02.708Z,70.65
2019-02-16T17:15:02.624Z,70.72
2019-02-16T17:16:02.849Z,70.14
2019-02-16T17:17:02.571Z,70.04
2019-02-16T17:18:02.560Z,71.69
2019-02-16T17:19:02.611Z,70.68
2019-02-16T17:20:02.958Z,70.37
2019-02-16T17:21:02.630Z,69.96
2019-02-16T17:22:02.525Z,71.92
2019-02-16T17:23:02.507Z,72.33
2019-02-16T17:24:02.581Z,71.75
2019-02-16T17:25:02.503Z,71.85
2019-02-16T17:26:02.507Z,72.88
2019-02-16T17:27:02.503Z,72.27
2019-02-16T17:28:02.476Z,72.37
2019-02-16T17:29:02.442Z,71.85
2019-02-16T17:30:02.503Z,73.19
2019-02-16T17:31:02.512Z,73.54
2019-02-16T17:32:02.522Z,73.74
2019-02-16T17:33:02.440Z,73.74
2019-02-16T17:34:02.386Z,74.26
2019-02-16T17:35:02.375Z,74.26
2019-02-16T17:36:02.397Z,73.85
2019-02-16T17:37:02.383Z,74.26
2019-02-16T17:38:02.355Z,74.29
2019-02-16T17:39:02.344Z,74.29
2019-02-16T17:40:02.314Z,74.40
2019-02-16T17:41:02.359Z,74.50
2019-02-16T17:42:02.317Z,74.60
2019-02-16T17:43:02.289Z,74.81
2019-02-16T17:44:02.284Z,75.12
2019-02-16T17:45:02.265Z,74.84
2019-02-16T17:46:02.261Z,75.12
2019-02-16T17:47:02.269Z,74.84
2019-02-16T17:48:02.242Z,75.63
2019-02-16T17:49:02.230Z,74.95
2019-02-16T17:50:02.233Z,75.46
2019-02-16T17:51:02.229Z,75.15
2019-02-16T17:52:02.258Z,75.05
2019-02-16T17:53:02.185Z,75.36
2019-02-16T17:54:08.094Z,75.77
2019-02-16T17:55:03.197Z,76.18
2019-02-16T17:56:02.151Z,75.49
2019-02-16T17:57:02.156Z,75.98
2019-02-16T17:58:02.158Z,75.91
2019-02-16T17:59:02.129Z,75.67
2019-02-16T18:00:02.096Z,75.60
2019-02-16T18:01:02.100Z,76.12
2019-02-16T18:02:02.111Z,76.22
2019-02-16T18:03:02.057Z,76.64
2019-02-16T18:04:02.075Z,77.04
2019-02-16T18:05:02.046Z,76.94
2019-02-16T18:06:02.170Z,76.94
2019-02-16T18:07:02.043Z,76.73
2019-02-16T18:08:02.027Z,77.15
2019-02-16T18:09:02.012Z,77.87
2019-02-16T18:10:01.997Z,77.25
2019-02-16T18:11:03.112Z,77.29
2019-02-16T18:12:01.966Z,77.56
2019-02-16T18:13:01.995Z,78.59
2019-02-16T18:14:01.942Z,77.56
2019-02-16T18:15:01.971Z,77.39
2019-02-16T18:16:01.913Z,77.29
2019-02-16T18:17:01.930Z,77.19
2019-02-16T18:18:01.928Z,78.32
2019-02-16T18:19:01.929Z,77.50
2019-02-16T18:20:01.881Z,77.70
2019-02-16T18:21:02.396Z,78.32
2019-02-16T18:22:01.860Z,78.42
2019-02-16T18:23:01.863Z,78.77
2019-02-16T18:24:01.882Z,79.08
2019-02-16T18:25:01.825Z,79.05
2019-02-16T18:26:01.814Z,78.77
2019-02-16T18:27:01.909Z,78.25
2019-02-16T18:28:01.819Z,78.94
2019-02-16T18:29:01.815Z,78.88
2019-02-16T18:30:01.767Z,78.46
2019-02-16T18:31:01.750Z,78.67
2019-02-16T18:32:01.771Z,78.98
2019-02-16T18:33:01.757Z,79.08
2019-02-16T18:34:01.762Z,78.77
2019-02-16T18:35:01.750Z,78.67
2019-02-16T18:36:01.705Z,78.98
2019-02-16T18:37:01.690Z,78.98
2019-02-16T18:38:01.708Z,78.25
2019-02-16T18:39:01.707Z,79.08
2019-02-16T18:40:01.777Z,78.88
2019-02-16T18:41:01.663Z,79.39
2019-02-16T18:42:01.638Z,79.29
2019-02-16T18:43:01.648Z,79.53
2019-02-16T18:44:01.661Z,79.53
2019-02-16T18:45:01.610Z,79.43
2019-02-16T18:46:01.625Z,78.91
2019-02-16T18:47:01.605Z,79.63
2019-02-16T18:48:01.582Z,79.70
2019-02-16T18:49:01.615Z,79.33
2019-02-16T18:50:01.574Z,80.15
2019-02-16T18:51:01.562Z,79.94
2019-02-16T18:52:01.552Z,79.94
2019-02-16T18:53:01.546Z,79.33
2019-02-16T18:54:01.545Z,79.53
2019-02-16T18:55:10.712Z,79.57
2019-02-16T18:56:02.501Z,79.94
2019-02-16T18:57:06.663Z,79.98
2019-02-16T18:58:02.470Z,79.77
2019-02-16T18:59:01.465Z,79.63
2019-02-16T19:00:03.029Z,80.19
2019-02-16T19:01:01.437Z,79.88
2019-02-16T19:02:01.427Z,79.77
2019-02-16T19:03:01.490Z,80.60
2019-02-16T19:04:01.450Z,81.23
2019-02-16T19:05:01.456Z,79.88
2019-02-16T19:06:01.395Z,80.19
2019-02-16T19:07:01.388Z,80.50
2019-02-16T19:08:01.394Z,80.08
2019-02-16T19:09:01.414Z,81.02
2019-02-16T19:10:01.360Z,81.33
2019-02-16T19:11:01.407Z,80.81
2019-02-16T19:12:01.345Z,80.91
2019-02-16T19:13:01.322Z,81.12
2019-02-16T19:14:01.308Z,81.33
2019-02-16T19:15:01.330Z,81.12
2019-02-16T19:16:01.342Z,81.02
2019-02-16T19:17:01.293Z,81.02
2019-02-16T19:18:01.262Z,80.71
2019-02-16T19:19:01.256Z,80.08
2019-02-16T19:20:01.261Z,80.95
2019-02-16T19:21:01.287Z,81.37
2019-02-16T19:22:01.260Z,80.95
2019-02-16T19:23:01.213Z,81.16
2019-02-16T19:24:01.194Z,80.95
2019-02-16T19:25:01.280Z,81.47
2019-02-16T19:26:01.242Z,81.47
2019-02-16T19:27:01.179Z,80.22
2019-02-16T19:28:01.184Z,81.47
2019-02-16T19:29:01.139Z,80.95
2019-02-16T19:30:01.132Z,80.43
2019-02-16T19:31:01.236Z,80.33
2019-02-16T19:32:01.111Z,80.43
2019-02-16T19:33:01.117Z,80.54
2019-02-16T19:34:01.097Z,80.26
2019-02-16T19:35:01.124Z,80.95
2019-02-16T19:36:01.136Z,80.85
2019-02-16T19:37:01.123Z,81.37
2019-02-16T19:38:01.073Z,81.47
2019-02-16T19:39:01.053Z,81.37
2019-02-16T19:40:01.059Z,80.88
2019-02-16T19:41:01.027Z,81.26
2019-02-16T19:42:01.078Z,81.51
2019-02-16T19:43:01.127Z,81.47
2019-02-16T19:44:00.998Z,81.51
2019-02-16T19:45:00.986Z,80.99
2019-02-16T19:46:01.038Z,81.68
2019-02-16T19:47:00.999Z,81.61
2019-02-16T19:48:00.978Z,82.13
2019-02-16T19:49:00.960Z,81.40
2019-02-16T19:50:00.938Z,81.92
2019-02-16T19:51:00.953Z,82.13
2019-02-16T19:52:00.974Z,82.58
2019-02-16T19:53:00.908Z,82.13
2019-02-16T19:54:00.890Z,82.65
2019-02-16T19:55:00.900Z,82.06
2019-02-16T19:56:00.870Z,82.54
2019-02-16T19:57:00.920Z,82.23
2019-02-16T19:58:00.959Z,82.58
2019-02-16T19:59:00.888Z,81.54
2019-02-16T20:00:02.321Z,81.23
2019-02-16T20:01:00.826Z,81.34
2019-02-16T20:02:01.041Z,81.44
2019-02-16T20:03:00.868Z,81.34
2019-02-16T20:04:00.951Z,81.30
2019-02-16T20:05:00.801Z,81.65
2019-02-16T20:06:00.885Z,81.54
2019-02-16T20:07:00.780Z,82.58
2019-02-16T20:08:00.779Z,81.96
2019-02-16T20:09:00.785Z,82.37
2019-02-16T20:10:00.766Z,81.96
2019-02-16T20:11:00.730Z,82.48
2019-02-16T20:12:00.714Z,82.68
2019-02-16T20:13:00.767Z,82.48
2019-02-16T20:14:00.700Z,82.37
2019-02-16T20:15:00.688Z,82.27
2019-02-16T20:16:00.676Z,82.27
2019-02-16T20:17:00.672Z,82.20
2019-02-16T20:18:00.649Z,82.68
2019-02-16T20:19:00.708Z,82.68
2019-02-16T20:20:00.634Z,82.48
2019-02-16T20:21:00.619Z,82.79
2019-02-16T20:22:00.646Z,82.68
2019-02-16T20:23:00.600Z,82.68
2019-02-16T20:24:00.612Z,82.89
2019-02-16T20:25:00.614Z,83.45
2019-02-16T20:26:00.568Z,83.24
2019-02-16T20:27:00.559Z,83.34
2019-02-16T20:28:00.562Z,83.97
2019-02-16T20:29:00.575Z,83.31
2019-02-16T20:30:00.593Z,83.65
2019-02-16T20:31:00.526Z,83.97
2019-02-16T20:32:00.517Z,83.65
2019-02-16T20:33:00.509Z,83.76
2019-02-16T20:34:00.520Z,83.31
2019-02-16T20:35:00.508Z,83.86
2019-02-16T20:36:00.479Z,84.07
2019-02-16T20:37:00.495Z,83.62
2019-02-16T20:38:00.456Z,83.65
2019-02-16T20:39:00.483Z,83.86
2019-02-16T20:40:00.444Z,83.76
2019-02-16T20:41:00.427Z,83.65
2019-02-16T20:42:00.425Z,83.86
2019-02-16T20:43:00.396Z,84.28
2019-02-16T20:44:00.399Z,84.07
2019-02-16T20:45:00.521Z,83.97
2019-02-16T20:46:00.390Z,84.07
2019-02-16T20:47:00.400Z,84.38
2019-02-16T20:48:00.364Z,83.97
2019-02-16T20:49:00.333Z,84.07
2019-02-16T20:50:00.343Z,84.07
2019-02-16T20:51:00.309Z,84.38
2019-02-16T20:52:00.307Z,84.48
2019-02-16T20:53:00.290Z,84.59
2019-02-16T20:54:00.345Z,84.90
2019-02-16T20:55:00.380Z,84.69
2019-02-16T20:56:00.270Z,84.07
2019-02-16T20:57:00.265Z,84.63
2019-02-16T20:58:00.259Z,84.94
2019-02-16T20:59:00.235Z,84.69
2019-02-16T21:00:00.355Z,84.90
2019-02-16T21:01:00.210Z,84.80
2019-02-16T21:02:00.215Z,84.73
2019-02-16T21:03:00.204Z,84.83
2019-02-16T21:04:00.177Z,84.59
2019-02-16T21:05:00.314Z,84.83
2019-02-16T21:06:00.205Z,84.80
2019-02-16T21:07:00.180Z,84.83
2019-02-16T21:08:00.165Z,84.83
2019-02-16T21:09:00.128Z,84.80
2019-02-16T21:10:00.202Z,84.83
2019-02-16T21:11:00.152Z,85.14
2019-02-16T21:12:00.101Z,84.83
2019-02-16T21:13:00.104Z,84.63
2019-02-16T21:14:00.070Z,84.69
2019-02-16T21:15:00.065Z,84.52
2019-02-16T21:16:00.104Z,84.73
2019-02-16T21:17:00.049Z,84.83
2019-02-16T21:18:00.092Z,84.48
2019-02-16T21:19:00.026Z,84.90
2019-02-16T21:20:00.029Z,85.21
2019-02-16T21:21:00.057Z,85.00
2019-02-16T21:22:00.088Z,85.00
2019-02-16T21:23:00.012Z,85.11
2019-02-16T21:23:59.981Z,85.04
2019-02-16T21:24:59.968Z,84.80
2019-02-16T21:26:00.004Z,85.14
2019-02-16T21:26:59.950Z,85.42
2019-02-16T21:27:59.936Z,85.66
2019-02-16T21:28:59.913Z,85.73
2019-02-16T21:29:59.908Z,85.46
2019-02-16T21:30:59.926Z,84.94
2019-02-16T21:31:59.934Z,84.52
2019-02-16T21:32:59.875Z,84.31
2019-02-16T21:33:59.873Z,84.52
2019-02-16T21:34:59.919Z,84.63
2019-02-16T21:35:59.859Z,84.52